METAR Data
IDs: Format: Raw Decoded Include TAF

Data at: 1347 UTC 07 Jul 2020

KMMI 071335Z AUTO 08006KT 10SM CLR 25/21 A3005 RMK A01
KMMI 071315Z AUTO 06004KT 10SM 25/22 A3004 RMK A01
KMMI 071255Z AUTO 00000KT 10SM CLR 24/22 A3004 RMK A01
KMMI 071235Z AUTO 00000KT 10SM CLR 24/22 A3004 RMK A01
KMMI 071215Z AUTO 00000KT 10SM CLR 23/22 A3004 RMK A01
KMMI 071155Z AUTO 00000KT 10SM CLR 23/21 A3004 RMK A01
KMMI 071135Z AUTO 00000KT 10SM CLR 22/21 A3003 RMK A01
KMMI 071115Z AUTO 00000KT 10SM CLR 22/21 A3003 RMK A01
KMMI 071055Z AUTO 00000KT 10SM FEW075 22/21 A3003 RMK A01
KMMI 071035Z AUTO 00000KT 10SM FEW060 SCT075 22/21 A3003 RMK A01
KMMI 071015Z AUTO 00000KT 10SM FEW035 SCT048 BKN100 22/21 A3003 RMK A01
KMMI 070955Z AUTO 00000KT 10SM FEW035 SCT060 BKN070 22/21 A3002 RMK A01
KMMI 070935Z AUTO 00000KT 5SM BR SCT070 SCT090 BKN110 23/21 A3002 RMK A01
KMMI 070915Z AUTO 00000KT 9SM FEW065 BKN080 BKN090 23/21 A3002 RMK A01
KMMI 070855Z AUTO 00000KT 5SM HZ FEW060 BKN080 BKN120 23/21 A3002 RMK A01
KMMI 070835Z AUTO 00000KT 10SM CLR 23/21 A3002 RMK A01
KMMI 070815Z AUTO 05005KT 10SM CLR 23/21 A3001 RMK A01
KMMI 070755Z AUTO 00000KT 10SM FEW060 FEW080 23/21 A3001 RMK A01
KMMI 070735Z AUTO 00000KT 10SM FEW047 SCT060 BKN080 24/20 A3002 RMK A01
KMMI 070715Z AUTO 00000KT 10SM FEW049 SCT110 24/20 A3002 RMK A01
KMMI 070655Z AUTO 00000KT 10SM CLR 24/20 A3002 RMK A01
KMMI 070630Z AUTO 18004KT 10SM FEW050 FEW055 FEW075 24/20 A3003 RMK A01
KMMI 070615Z AUTO 14003KT 10SM FEW043 FEW050 FEW055 24/20 A3003 RMK A01
KMMI 070555Z AUTO 00000KT 10SM CLR 24/20 A3003 RMK A01
KMMI 070535Z AUTO 00000KT 10SM CLR 24/20 A3004 RMK A01
KMMI 070515Z AUTO 00000KT 10SM FEW075 25/20 A3005 RMK A01
KMMI 070455Z AUTO 13003KT 10SM BKN075 BKN080 25/20 A3005 RMK A01
KMMI 070435Z AUTO 15005KT 10SM FEW038 FEW045 OVC080 25/20 A3006 RMK A01
KMMI 070415Z AUTO 16003KT 10SM BKN041 BKN055 OVC090 25/22 A3006 RMK A01
KMMI 070355Z AUTO 00000KT 10SM SCT040 SCT065 OVC090 25/22 A3006 RMK A01
KMMI 070335Z AUTO 00000KT 10SM FEW065 BKN080 OVC090 25/21 A3005 RMK A01
KMMI 070315Z AUTO 00000KT 10SM FEW060 OVC075 25/21 A3005 RMK A01
KMMI 070255Z AUTO 00000KT 10SM FEW060 OVC070 26/21 A3004 RMK A01
KMMI 070235Z AUTO 00000KT 10SM FEW050 BKN065 OVC075 26/21 A3004 RMK A01
KMMI 070215Z AUTO VRB04KT 10SM FEW050 SCT065 BKN075 27/20 A3003 RMK A01
KMMI 070155Z AUTO 19006G12KT 10SM FEW065 OVC110 27/20 A3002 RMK A01
KMMI 070135Z AUTO 00000KT 10SM SCT055 BKN065 OVC110 28/20 A3001 RMK A01
KMMI 070115Z AUTO VRB03KT 10SM SCT055 BKN065 OVC090 28/21 A3001 RMK A01
KMMI 070055Z AUTO 17007KT 10SM FEW055 BKN070 OVC085 28/21 A3000 RMK A01
KMMI 070035Z AUTO VRB04KT 10SM FEW070 SCT090 28/21 A3000 RMK A01
KMMI 070015Z AUTO 00000KT 10SM CLR 29/21 A2999 RMK A01
KMMI 062355Z AUTO 00000KT 10SM CLR 29/21 A2999 RMK A01
KMMI 062335Z AUTO 17005KT 10SM FEW050 29/21 A2998 RMK A01
KMMI 062315Z AUTO 00000KT 10SM SCT055 30/21 A2998 RMK A01
KMMI 062255Z AUTO 00000KT 10SM FEW055 SCT065 30/22 A2999 RMK A01
KMMI 062235Z AUTO 00000KT 10SM CLR 30/21 A2999 RMK A01
KMMI 062215Z AUTO 00000KT 10SM CLR 31/21 A2998 RMK A01
KMMI 062155Z AUTO 00000KT 10SM SCT085 31/20 A2998 RMK A01
KMMI 062130Z AUTO 10003KT 10SM CLR 31/19 A2999 RMK A01
KMMI 062115Z AUTO 00000KT 10SM CLR 32/18 A2999 RMK A01
KMMI 062055Z AUTO 00000KT 10SM CLR 32/19 A2999 RMK A01
KMMI 062035Z AUTO 00000KT 10SM CLR 32/19 A3000 RMK A01
KMMI 062015Z AUTO 00000KT 10SM CLR 31/19 A3000 RMK A01
KMMI 061955Z AUTO 00000KT 10SM FEW065 31/20 A3001 RMK A01
KMMI 061935Z AUTO 00000KT 10SM FEW060 SCT070 31/19 A3002 RMK A01
KMMI 061915Z AUTO 00000KT 10SM FEW055 SCT065 31/19 A3002 RMK A01
KMMI 061855Z AUTO VRB03KT 10SM CLR 31/19 A3002 RMK A01
KMMI 061835Z AUTO 00000KT 10SM FEW050 SCT060 SCT070 31/20 A3003 RMK A01
KMMI 061815Z AUTO 35004KT 10SM SCT049 BKN060 BKN070 31/19 A3004 RMK A01
KMMI 061755Z AUTO 00000G13KT 10SM SCT048 30/19 A3004 RMK A01
KMMI 061735Z AUTO VRB03KT 10SM CLR 31/19 A3005 RMK A01
KMMI 061715Z AUTO 06005KT 10SM CLR 31/19 A3006 RMK A01
KMMI 061655Z AUTO VRB04KT 10SM CLR 31/19 A3006 RMK A01
KMMI 061635Z AUTO 00000KT 10SM CLR 30/19 A3007 RMK A01
KMMI 061615Z AUTO VRB04KT 10SM CLR 30/20 A3008 RMK A01
KMMI 061555Z AUTO 00000KT 10SM CLR 29/19 A3008 RMK A01
KMMI 061535Z AUTO 08006KT 10SM CLR 29/20 A3007 RMK A01
KMMI 061515Z AUTO 00000KT 10SM CLR 29/21 A3008 RMK A01
KMMI 061455Z AUTO 00000KT 10SM CLR 28/21 A3008 RMK A01
KMMI 061435Z AUTO 00000KT 10SM CLR 28/21 A3008 RMK A01
KMMI 061415Z AUTO 00000KT 10SM CLR 26/22 A3007 RMK A01
KMMI 061355Z AUTO 00000KT 10SM CLR 26/22 A3007 RMK A01
KMMI 061335Z AUTO 06004KT 10SM CLR 25/21 A3007 RMK A01
KMMI 061315Z AUTO 07003KT 10SM CLR 24/22 A3007 RMK A01
KMMI 061255Z AUTO 06003KT 10SM CLR 23/22 A3006 RMK A01
KMMI 061235Z AUTO 00000KT 10SM CLR 23/22 A3006 RMK A01
KMMI 061215Z AUTO 00000KT 10SM CLR 23/21 A3006 RMK A01
KMMI 061155Z AUTO 07003KT 10SM CLR 22/21 A3005 RMK A01
KMMI 061135Z AUTO 00000KT 10SM CLR 21/20 A3005 RMK A01
KMMI 061115Z AUTO 00000KT 8SM CLR 20/20 A3004 RMK A01
KMMI 061055Z AUTO 00000KT 6SM BR FEW080 20/20 A3004 RMK A01
KMMI 061035Z AUTO 00000KT 5SM BR BKN075 20/20 A3004 RMK A01
KMMI 061015Z AUTO 00000KT 10SM SCT075 20/20 A3003 RMK A01
KMMI 060955Z AUTO 00000KT 9SM CLR 20/20 A3002 RMK A01
KMMI 060935Z AUTO 00000KT 8SM CLR 20/20 A3002 RMK A01
KMMI 060910Z AUTO 00000KT 8SM CLR 20/20 A3000 RMK A01
KMMI 060855Z AUTO 00000KT 8SM CLR 21/21 A2999 RMK A01
KMMI 060835Z AUTO 00000KT 9SM CLR 21/20 A2999 RMK A01
KMMI 060815Z AUTO 00000KT 9SM CLR 21/21 A2999 RMK A01
KMMI 060755Z AUTO 00000KT 10SM CLR 21/21 A2999 RMK A01
KMMI 060735Z AUTO 00000KT 10SM CLR 21/21 A2998 RMK A01
KMMI 060715Z AUTO 00000KT 10SM CLR 21/21 A2999 RMK A01
KMMI 060655Z AUTO 00000KT 10SM FEW055 21/21 A3000 RMK A01
KMMI 060635Z AUTO 00000KT 7SM FEW050 21/21 A3000 RMK A01
KMMI 060615Z AUTO 00000KT 10SM FEW050 22/21 A3001 RMK A01
KMMI 060555Z AUTO 05003KT 10SM SCT050 SCT055 22/21 A3000 RMK A01
KMMI 060535Z AUTO 00000KT 10SM SCT050 SCT055 22/21 A3001 RMK A01
KMMI 060515Z AUTO 00000KT 10SM SCT055 BKN080 22/22 A3001 RMK A01
KMMI 060455Z AUTO 00000KT 10SM SCT080 23/22 A3001 RMK A01
KMMI 060435Z AUTO 00000KT 10SM CLR 23/22 A3001 RMK A01
KMMI 060415Z AUTO 00000KT 10SM FEW060 23/22 A3001 RMK A01
KMMI 060355Z AUTO 00000KT 10SM SCT055 SCT090 23/22 A3001 RMK A01
KMMI 060335Z AUTO 00000KT 10SM SCT055 SCT100 23/22 A3001 RMK A01
KMMI 060315Z AUTO 00000KT 10SM SCT055 BKN100 23/23 A3001 RMK A01
KMMI 060255Z AUTO 00000KT 10SM SCT050 BKN110 23/23 A3001 RMK A01
KMMI 060235Z AUTO 00000KT 8SM FEW050 BKN110 23/23 A3001 RMK A01
KMMI 060215Z AUTO 00000KT 8SM FEW050 FEW060 23/23 A3000 RMK A01
KMMI 060155Z AUTO 00000KT 8SM FEW050 FEW060 SCT085 24/23 A3000 RMK A01